aviador You're here:

SCTE Decoded Metar

PUERTO MONTT in CHILE
Report Time2018-05-27 01:00:00
UTC Time2018-05-27 01:27:57
Flight Rules mvfr MVFR
WindVRB at 02 kt
Visibility7000 m
Phenomena:Vicinity Fog
Clouds:Scattered 030 Hf
Broken 200 Hf
Ceiling20,000 ft
Temp06°C (ISA -8)
Dew Point06°C (100% RH)
AAT4.4°C
QNH1015 hPa
Density Alt-676 ft
Elevation282 ft
Report Wrong Elevation
Raw Report
SCTE 270100Z VRB02KT 7000 VCFG SCT030 BKN200 06/06 Q1015 NOSIG=

Extra information for SCTE:More info

Metar Taf Metar & Taf Last 4 Metars F.Rules Stats Wind Profile Meteogram Temp Stats Airport Information Weather charts Add Link Nearby VenuesMetar ALERT Operation Metar Decoded Social comments